Terminal Aerodrome Forecast
Issued by NWS

Home | Current Version | Previous Version | Graphics & Text | Print | Product List | Glossary On
Versions: 1 2 3 4 5 6 7 8 9 10 11 12 13
000
FTUS45 KGGW 280521
TAFGDV
TAF
KGDV 280521Z 2806/2906 VRB06KT P6SM SCT250
     FM281500 24007KT P6SM SCT200
     FM281800 30010KT P6SM SCT250
     FM290300 35008KT P6SM SCT250=

USA.gov is the U.S. government's official web portal to all federal, state and local government web resources and services.